Latest Weather Observations for Canberra

IDN60901

Issued at 7:05 pm EST Tuesday 22 July 2014 (issued every 10 minutes, with the page automatically refreshed every 10 minutes)

About weather observations | Map of Canberra area stations | Latest observations for Canberra area | Other Formats
Station Details ID: 070351 Name: CANBERRA AIRPORT Lat: -35.31 Lon: 149.20 Height: 577.05 m
Data from the previous 72 hours. | See also: Recent months at Canberra
Date/Time
EST
Tmp

°C
App
Tmp
°C
Dew
Point
°C
Rel
Hum
%
Delta-T

°C
Wind Press
QNH
hPa
Press
MSL
hPa
Rain
since
9 am
mm
Dir
 
Spd
km/h
Gust
km/h
Spd
kts
Gust
kts
22/07:00pm 3.5 0.2 2.6 94 0.4 E 9 9 5 5 1023.6 - 0.0
22/06:30pm 3.5 1.0 1.4 86 0.8 NE 4 6 2 3 1023.5 - 0.0
22/06:00pm 4.2 1.1 1.2 81 1.2 N 7 7 4 4 1023.3 1024.7 0.0
22/05:30pm 6.2 3.2 2.3 76 1.7 E 7 9 4 5 1023.0 - 0.0
22/05:00pm 10.9 9.2 1.7 53 4.0 CALM 0 0 0 0 1022.6 - 0.0
22/04:30pm 12.6 9.6 2.2 49 4.7 W 7 9 4 5 1022.4 - 0.0
22/04:00pm 12.9 10.2 3.6 53 4.3 WNW 7 11 4 6 1022.3 - 0.0
22/03:30pm 13.3 10.5 3.1 50 4.7 SW 7 9 4 5 1022.3 - 0.0
22/03:00pm 12.9 10.5 4.3 56 4.0 N 6 7 3 4 1022.3 1023.7 0.0
22/02:30pm 12.9 11.1 5.3 60 3.7 WNW 4 9 2 5 1022.3 - 0.0
22/02:00pm 12.2 9.8 5.4 63 3.3 WNW 7 11 4 6 1022.4 - 0.0
22/01:30pm 11.5 9.0 4.7 63 3.2 N 7 9 4 5 1022.6 - 0.0
22/01:00pm 11.2 8.8 5.1 66 2.9 NW 7 11 4 6 1023.0 - 0.0
22/12:30pm 10.2 8.4 5.4 72 2.3 NW 4 11 2 6 1023.4 - 0.0
22/12:00pm 9.3 7.0 4.9 74 2.0 WSW 6 9 3 5 1024.0 1025.4 0.0
22/11:53am 9.0 6.5 4.8 75 1.9 WSW 7 11 4 6 1024.2 - 0.0
22/11:30am 8.3 6.0 4.9 79 1.6 WSW 6 9 3 5 1024.8 - 0.0
22/11:00am 7.8 4.9 4.6 80 1.5 SSW 9 11 5 6 1025.1 - 0.0
22/10:30am 7.3 4.4 4.6 83 1.2 S 9 11 5 6 1025.2 - 0.0
22/10:00am 6.7 3.3 4.2 84 1.1 S 11 13 6 7 1025.3 - 0.0
22/09:30am 6.5 3.1 4.2 85 1.0 SSE 11 15 6 8 1025.3 - 0.0
22/09:00am 6.5 3.2 4.5 87 0.9 SE 11 13 6 7 1025.1 1026.5 0.0
22/08:30am 6.0 3.0 4.2 88 0.8 S 9 11 5 6 1025.0 - 0.0
22/08:00am 5.6 3.1 3.9 89 0.7 SSE 6 7 3 4 1024.9 - 0.0
22/07:30am 5.1 2.4 3.6 90 0.6 S 7 7 4 4 1024.6 - 0.0
22/07:00am 4.8 3.4 3.3 90 0.6 CALM 0 0 0 0 1024.2 - 0.0
22/06:30am 4.7 3.2 3.0 89 0.7 CALM 0 2 0 1 1024.1 - 0.0
22/06:00am 5.0 2.8 3.5 90 0.6 SSE 4 9 2 5 1023.9 1025.3 0.0
22/05:30am 4.9 3.5 3.4 90 0.6 CALM 0 0 0 0 1023.8 - 0.0
22/05:00am 4.9 2.4 3.6 91 0.6 SSE 6 9 3 5 1023.6 - 0.0
22/04:30am 4.8 2.2 3.3 90 0.6 E 6 11 3 6 1023.4 - 0.0
22/04:00am 4.3 2.8 3.1 92 0.5 CALM 0 0 0 0 1023.6 - 0.0
22/03:30am 3.9 2.3 2.6 91 0.5 CALM 0 2 0 1 1023.6 - 0.0
22/03:00am 4.5 2.7 3.2 91 0.6 NNW 2 7 1 4 1023.8 1025.2 0.0
22/02:30am 3.8 2.3 2.9 94 0.4 CALM 0 0 0 0 1023.8 - 0.0
22/02:00am 3.1 1.5 2.5 96 0.2 CALM 0 0 0 0 1023.8 - 0.0
22/01:30am 2.5 0.8 1.9 96 0.2 CALM 0 7 0 4 1024.0 - 0.0
22/01:00am 2.0 0.3 1.7 98 0.1 CALM 0 0 0 0 1024.1 - 0.0
22/12:30am 0.6 -1.8 -0.4 93 0.4 WNW 2 6 1 3 1024.1 - 0.0
22/12:20am 0.0 -3.5 -1.1 92 0.4 NW 7 9 4 5 1024.2 - 0.0
22/12:00am 0.7 -2.5 -0.3 93 0.4 ENE 6 7 3 4 1024.2 1025.6 0.0
 
Date/Time
EST
Tmp

°C
App
Tmp
°C
Dew
Point
°C
Rel
Hum
%
Delta-T

°C
Wind Press
QNH
hPa
Press
MSL
hPa
Rain
since
9 am
mm
Dir
 
Spd
km/h
Gust
km/h
Spd
kts
Gust
kts
21/11:30pm 1.9 -1.1 0.9 93 0.4 ESE 6 9 3 5 1024.3 - 0.0
21/11:00pm 1.2 -1.1 0.2 93 0.4 SE 2 7 1 4 1024.3 - 0.0
21/10:30pm 2.2 0.4 1.2 93 0.4 CALM 0 0 0 0 1024.5 - 0.0
21/10:00pm 2.0 -0.6 0.7 91 0.5 NNW 4 7 2 4 1024.4 - 0.0
21/09:30pm 2.3 0.1 1.1 92 0.5 N 2 6 1 3 1024.4 - 0.0
21/09:00pm 2.6 0.8 1.3 91 0.5 CALM 0 0 0 0 1024.3 1025.7 0.0
21/08:30pm 2.8 1.0 1.3 90 0.6 CALM 0 0 0 0 1024.2 - 0.0
21/08:00pm 2.4 0.5 0.5 87 0.7 CALM 0 6 0 3 1024.1 - 0.0
21/07:30pm 2.5 0.5 -0.3 82 1.1 CALM 0 0 0 0 1024.0 - 0.0
21/07:00pm 3.5 1.4 1.4 86 0.8 NW 2 7 1 4 1023.9 - 0.0
21/06:30pm 2.8 -0.5 -0.1 81 1.1 ESE 7 9 4 5 1023.7 - 0.0
21/06:00pm 3.8 0.7 1.2 83 1.0 E 7 9 4 5 1023.4 1024.8 0.0
21/05:30pm 5.7 2.6 1.4 74 1.8 ENE 7 9 4 5 1023.2 - 0.0
21/05:00pm 8.3 5.5 2.3 66 2.6 N 6 7 3 4 1023.1 - 0.0
21/04:30pm 9.7 6.1 3.0 63 3.0 NNW 11 15 6 8 1023.1 - 0.0
21/04:00pm 10.6 6.2 2.9 59 3.4 NW 15 17 8 9 1023.0 - 0.0
21/03:30pm 11.2 6.7 2.2 54 4.0 NW 15 19 8 10 1023.0 - 0.0
21/03:00pm 12.8 9.5 2.6 50 4.6 NNW 9 13 5 7 1023.0 1024.3 0.0
21/02:30pm 12.5 9.2 2.4 50 4.5 WNW 9 13 5 7 1023.0 - 0.0
21/02:00pm 12.8 10.2 3.2 52 4.4 NNW 6 11 3 6 1023.1 - 0.0
21/01:30pm 12.2 9.5 3.7 56 3.9 WNW 7 13 4 7 1023.4 - 0.0
21/01:00pm 12.0 9.3 3.5 56 3.9 WNW 7 9 4 5 1023.9 - 0.0
21/12:30pm 11.2 8.7 3.7 60 3.4 WNW 6 9 3 5 1024.4 - 0.0
21/12:00pm 10.3 7.5 3.1 61 3.2 W 7 9 4 5 1024.9 1026.3 0.0
21/11:30am 9.3 6.8 3.9 69 2.4 WSW 6 7 3 4 1025.5 - 0.0
21/11:00am 7.2 5.0 3.1 75 1.8 W 4 7 2 4 1025.9 - 0.0
21/10:30am 5.4 2.7 2.6 82 1.2 ESE 6 9 3 5 1026.2 - 0.0
21/10:00am 3.2 1.5 1.9 91 0.5 CALM 0 0 0 0 1026.8 - 0.0
21/09:30am 1.9 0.1 1.0 94 0.4 CALM 0 0 0 0 1027.0 - 0.0
21/09:00am 0.1 -2.0 -0.5 96 0.2 CALM 0 0 0 0 1027.1 1028.5 0.0
21/08:30am -1.1 -4.6 -1.7 96 0.2 N 7 7 4 4 1027.1 - 0.0
21/08:00am -2.2 -5.3 -3.0 94 0.2 NW 4 7 2 4 1027.0 - 0.0
21/07:30am -2.3 -4.7 -2.8 96 0.1 CALM 0 0 0 0 1026.8 - 0.0
21/07:00am -2.7 -5.1 -3.2 96 0.0 CALM 0 0 0 0 1026.7 - 0.0
21/06:30am -3.2 -6.0 -3.7 96 0.0 SSW 2 6 1 3 1026.2 - 0.0
21/06:00am -3.3 -6.6 -4.0 95 0.1 SW 4 7 2 4 1026.4 1027.9 0.0
21/05:30am -2.7 -5.1 -3.2 96 0.0 CALM 0 0 0 0 1026.4 - 0.0
21/05:00am -2.3 -5.1 -3.1 94 0.2 N 2 6 1 3 1026.3 - 0.0
21/04:30am -2.5 -6.2 -3.3 94 0.2 N 7 9 4 5 1026.3 - 0.0
21/04:00am -2.9 -6.5 -3.9 93 0.2 NNW 6 7 3 4 1026.2 - 0.0
21/03:30am -2.1 -4.5 -2.9 94 0.2 CALM 0 0 0 0 1026.1 - 0.0
21/03:00am -2.3 -4.7 -3.3 93 0.2 CALM 0 0 0 0 1026.2 1027.7 0.0
21/02:30am -1.7 -4.8 -2.5 94 0.2 N 4 7 2 4 1026.2 - 0.0
21/02:00am -1.8 -4.2 -3.2 90 0.4 CALM 0 0 0 0 1026.3 - 0.0
21/01:30am -1.8 -4.2 -3.1 91 0.4 CALM 0 7 0 4 1026.4 - 0.0
21/01:00am -0.5 -2.7 -1.3 94 0.3 CALM 0 0 0 0 1026.3 - 0.0
21/12:30am -1.4 -4.9 -2.5 92 0.3 NNE 6 7 3 4 1026.4 - 0.0
21/12:00am -0.9 -3.6 -2.3 90 0.4 NW 2 7 1 4 1026.5 1028.0 0.0
 
Date/Time
EST
Tmp

°C
App
Tmp
°C
Dew
Point
°C
Rel
Hum
%
Delta-T

°C
Wind Press
QNH
hPa
Press
MSL
hPa
Rain
since
9 am
mm
Dir
 
Spd
km/h
Gust
km/h
Spd
kts
Gust
kts
20/11:30pm -1.2 -4.9 -3.2 86 0.6 SE 7 9 4 5 1026.7 - 0.0
20/11:00pm 0.1 -2.1 -1.2 91 0.5 CALM 0 0 0 0 1026.8 - 0.0
20/10:30pm -0.5 -3.9 -2.1 89 0.5 N 6 9 3 5 1026.9 - 0.0
20/10:00pm 0.0 -2.6 -1.6 89 0.6 NNE 2 4 1 2 1026.7 - 0.0
20/09:30pm -0.6 -3.4 -3.1 83 0.8 E 2 7 1 4 1026.5 - 0.0
20/09:00pm 0.4 -1.8 -1.5 87 0.7 CALM 0 6 0 3 1026.3 1027.8 0.0
20/08:30pm 0.6 -2.4 -1.5 86 0.8 NNW 4 9 2 5 1026.4 - 0.0
20/08:00pm 1.3 -0.9 -1.4 82 1.0 CALM 0 0 0 0 1026.2 - 0.0
20/07:30pm 1.8 -0.7 -1.1 81 1.1 E 2 7 1 4 1026.1 - 0.0
20/07:00pm 1.3 -1.0 -2.3 77 1.3 CALM 0 0 0 0 1025.9 - 0.0
20/06:30pm 2.8 -0.4 -0.5 79 1.3 ENE 6 7 3 4 1025.7 - 0.0
20/06:00pm 2.1 -1.4 -1.5 77 1.3 ENE 7 9 4 5 1025.4 1026.8 0.0
20/05:30pm 4.9 1.1 -0.5 68 2.1 N 9 9 5 5 1025.1 - 0.0
20/05:00pm 8.4 4.8 0.4 57 3.3 NNW 9 9 5 5 1024.9 - 0.0
20/04:30pm 9.7 5.7 0.3 52 3.9 NNW 11 13 6 7 1024.9 - 0.0
20/04:00pm 11.0 7.0 0.4 48 4.5 N 11 13 6 7 1024.9 - 0.0
20/03:30pm 11.6 7.5 0.1 45 4.9 NNW 11 15 6 8 1024.9 - 0.0
20/03:00pm 11.7 7.7 0.2 45 4.9 N 11 15 6 8 1025.0 1026.4 0.0
20/02:30pm 12.2 8.4 -0.6 41 5.4 N 9 19 5 10 1025.1 - 0.0
20/02:00pm 11.7 7.6 -2.9 36 5.8 N 9 13 5 7 1025.4 - 0.0
20/01:30pm 11.6 7.6 -2.2 38 5.6 WNW 9 15 5 8 1025.7 - 0.0
20/01:00pm 11.1 7.8 -0.1 46 4.7 SSW 7 13 4 7 1026.0 - 0.0
20/12:30pm 10.4 6.8 0.7 51 4.1 WSW 9 15 5 8 1026.3 - 0.0
20/12:00pm 9.7 6.1 0.9 54 3.7 SW 9 13 5 7 1026.8 1028.2 0.0
20/11:30am 9.8 6.1 2.2 59 3.3 SW 11 15 6 8 1027.4 - 0.0
20/11:00am 8.8 5.7 1.5 60 3.1 SSE 7 19 4 10 1027.7 - 0.0
20/10:30am 7.6 4.1 1.2 64 2.7 SSW 9 13 5 7 1028.0 - 0.0
20/10:00am 5.6 2.6 1.0 72 1.9 W 6 9 3 5 1028.2 - 0.0
20/09:30am 3.2 0.5 0.4 82 1.1 SW 4 9 2 5 1028.2 - 0.0
20/09:00am 1.4 -1.8 -0.5 87 0.7 SW 6 9 3 5 1028.1 1029.6 0.0
20/08:30am -0.2 -2.7 -1.2 93 0.4 NNW 2 9 1 5 1027.8 - 0.0
20/08:00am -1.9 -5.4 -2.7 94 0.2 NE 6 7 3 4 1027.7 - 0.0
20/07:30am -4.5 -7.2 -5.5 93 0.1 CALM 0 0 0 0 1027.4 - 0.0
20/07:00am -4.5 -7.5 -5.5 93 0.1 W 2 6 1 3 1027.1 - 0.0
20/06:30am -4.0 -6.6 -4.7 95 0.1 CALM 0 4 0 2 1026.8 - 0.0
20/06:00am -3.6 -6.1 -4.3 95 0.1 CALM 0 0 0 0 1026.2 1027.7 0.0
20/05:30am -3.8 -7.1 -4.8 93 0.2 NNW 4 9 2 5 1025.9 - 0.0
20/05:00am -3.6 -6.2 -4.7 92 0.2 CALM 0 0 0 0 1025.9 - 0.0
20/04:30am -2.8 -5.3 -3.8 93 0.2 CALM 0 0 0 0 1025.9 - 0.0
20/04:00am -3.2 -7.1 -4.2 93 0.2 E 7 11 4 6 1025.7 - 0.0
20/03:30am -2.3 -5.1 -3.3 93 0.2 NE 2 6 1 3 1025.9 - 0.0
20/03:00am -1.7 -4.8 -2.8 92 0.3 ENE 4 9 2 5 1026.1 1027.6 0.0
20/02:30am -1.8 -5.9 -2.8 93 0.3 NE 9 13 5 7 1026.1 - 0.0
20/02:00am -0.8 -4.5 -2.7 87 0.6 SSE 7 9 4 5 1026.3 - 0.0
20/01:30am 1.5 -1.6 0.2 91 0.5 SSW 6 7 3 4 1026.2 - 0.0
20/01:00am -1.5 -5.2 -2.8 91 0.4 SSW 7 9 4 5 1026.2 - 0.0
20/12:30am -1.2 -4.9 -3.1 87 0.6 ESE 7 11 4 6 1026.2 - 0.0
20/12:00am -1.2 -6.1 -3.1 87 0.6 NNE 13 15 7 8 1026.4 1027.9 0.0
 
Date/Time
EST
Tmp

°C
App
Tmp
°C
Dew
Point
°C
Rel
Hum
%
Delta-T

°C
Wind Press
QNH
hPa
Press
MSL
hPa
Rain
since
9 am
mm
Dir
 
Spd
km/h
Gust
km/h
Spd
kts
Gust
kts
19/11:30pm -0.5 -4.5 -2.5 86 0.7 NNE 9 11 5 6 1026.3 - 0.0
19/11:00pm 0.0 -4.3 -1.6 89 0.6 SE 11 15 6 8 1026.2 - 0.0
19/10:30pm 0.9 -3.0 -1.3 85 0.8 E 9 13 5 7 1026.1 - 0.0
19/10:00pm 2.6 -1.4 -2.1 71 1.7 S 9 11 5 6 1026.1 - 0.0
19/09:30pm 5.8 0.3 0.6 69 2.1 S 19 26 10 14 1026.0 - 0.0
19/09:00pm 5.7 0.0 0.5 69 2.1 SSE 20 30 11 16 1026.0 1027.4 0.0
19/08:30pm 5.6 0.1 0.6 70 2.0 SSE 19 24 10 13 1026.2 - 0.0
19/08:00pm 3.8 -0.4 -1.0 71 1.8 SSE 11 13 6 7 1026.4 - 0.0
19/07:30pm 4.5 0.4 -0.3 71 1.9 S 11 13 6 7 1026.3 - 0.0

Latest Capital City Observations: Canberra | Sydney | Melbourne | Brisbane | Adelaide | Perth | Hobart | Darwin

Other Formats:

Comma delimited format used in spreadsheet applications
http://www.bom.gov.au/fwo/IDN60903/IDN60903.94926.axf

JavaScript Object Notation format (JSON) in row-major order
http://www.bom.gov.au/fwo/IDN60903/IDN60903.94926.json